Time;durP1;ratioP1;P1;durP2;ratioP2;P2;SDS_P1;SDS_P2;PMS_P1;PMS_P2;Temp;Humidity;BMP_temperature;BMP_pressure;BME280_temperature;BME280_humidity;BME280_pressure;Samples;Min_cycle;Max_cycle;Signal;HPM_P1;HPM_P2
2023/07/02 00:02:08;;;;;;;;;39.00;31.50;;;;;20.28;43.75;100765.34;5059635;28;45407;-73
2023/07/02 00:04:33;;;;;;;;;38.75;31.75;;;;;20.24;43.37;100771.78;5059649;28;45318;-72
2023/07/02 00:06:58;;;;;;;;;35.00;31.75;;;;;20.22;43.68;100776.34;5058937;28;45432;-72
2023/07/02 00:09:23;;;;;;;;;40.50;30.25;;;;;20.17;43.62;100770.41;5058051;28;45284;-71
2023/07/02 00:11:49;;;;;;;;;37.25;31.50;;;;;20.16;43.82;100771.34;5059306;28;45401;-72
2023/07/02 00:14:14;;;;;;;;;35.25;31.25;;;;;20.10;43.73;100772.53;5059420;28;49240;-72
2023/07/02 00:16:45;;;;;;;;;39.25;32.50;;;;;20.07;43.86;100777.19;5059296;28;45437;-71
2023/07/02 00:19:12;;;;;;;;;37.50;30.75;;;;;20.04;43.70;100764.88;5059567;28;45371;-71
2023/07/02 00:21:38;;;;;;;;;36.50;30.50;;;;;20.06;43.81;100771.00;5058819;28;45560;-72
2023/07/02 00:24:04;;;;;;;;;35.50;30.75;;;;;20.03;43.43;100765.81;5059318;28;45478;-72
2023/07/02 00:26:29;;;;;;;;;32.50;28.00;;;;;20.01;43.54;100764.16;5059059;28;45325;-73
2023/07/02 00:28:56;;;;;;;;;36.00;30.75;;;;;19.97;44.03;100764.34;5059350;28;45354;-72
2023/07/02 00:31:21;;;;;;;;;41.00;31.75;;;;;19.92;43.94;100766.41;5060467;28;45319;-71
2023/07/02 00:33:48;;;;;;;;;36.25;31.50;;;;;19.91;44.32;100759.34;5062673;28;45499;-72
2023/07/02 00:36:16;;;;;;;;;34.25;31.00;;;;;19.86;43.92;100758.72;5062506;28;45727;-71
2023/07/02 00:38:42;;;;;;;;;38.50;29.75;;;;;19.83;44.22;100766.03;5062615;28;45287;-71
2023/07/02 00:41:08;;;;;;;;;42.25;34.25;;;;;19.81;44.32;100764.25;5061116;28;45417;-71
2023/07/02 00:43:34;;;;;;;;;39.25;31.25;;;;;19.71;44.31;100752.34;5062606;28;45441;-72
2023/07/02 00:45:59;;;;;;;;;39.00;30.75;;;;;19.74;44.26;100760.19;5065750;28;45814;-72
2023/07/02 00:48:25;;;;;;;;;39.75;32.25;;;;;19.71;43.91;100760.34;5070662;28;45276;-72
2023/07/02 00:50:50;;;;;;;;;41.00;30.75;;;;;19.69;44.66;100767.56;5066942;28;45232;-71
2023/07/02 00:53:15;;;;;;;;;38.00;32.00;;;;;19.67;44.28;100768.59;5082800;28;45378;-71
2023/07/02 00:55:41;;;;;;;;;31.00;24.00;;;;;19.62;44.32;100761.69;5082326;28;46126;-72
2023/07/02 00:58:08;;;;;;;;;37.50;27.75;;;;;19.60;44.37;100760.06;5076049;28;45322;-72
2023/07/02 01:00:33;;;;;;;;;40.00;31.25;;;;;19.52;44.59;100756.91;5062421;28;45448;-72
2023/07/02 01:02:59;;;;;;;;;33.50;27.50;;;;;19.49;44.99;100761.44;5062375;28;45203;-72
2023/07/02 01:05:35;;;;;;;;;31.00;25.75;;;;;19.45;44.91;100767.03;5061691;28;46008;-73
2023/07/02 01:08:01;;;;;;;;;35.50;29.50;;;;;19.38;44.83;100761.13;5062341;28;45417;-72
2023/07/02 01:10:27;;;;;;;;;39.75;32.00;;;;;19.35;45.34;100769.28;5061880;28;45301;-72
2023/07/02 01:12:54;;;;;;;;;36.25;31.25;;;;;19.30;45.09;100766.00;5070300;28;50150;-73
2023/07/02 01:15:20;;;;;;;;;41.50;32.50;;;;;19.25;45.44;100766.22;5062023;28;45356;-73
2023/07/02 01:17:46;;;;;;;;;39.25;31.00;;;;;19.23;45.45;100770.78;5060777;28;45257;-72
2023/07/02 01:20:12;;;;;;;;;46.00;33.75;;;;;19.13;45.56;100759.72;5061961;28;45303;-72
2023/07/02 01:22:38;;;;;;;;;38.75;32.50;;;;;19.18;45.24;100772.78;5061786;28;45288;-72
2023/07/02 01:25:04;;;;;;;;;41.50;33.00;;;;;19.15;45.46;100773.81;5061633;28;46034;-72
2023/07/02 01:27:30;;;;;;;;;45.00;33.00;;;;;19.11;45.70;100780.22;5061989;28;45223;-73
2023/07/02 01:29:55;;;;;;;;;39.50;32.00;;;;;19.09;45.37;100779.44;5061911;28;45240;-72
2023/07/02 01:32:22;;;;;;;;;36.25;26.25;;;;;19.05;45.79;100777.03;5061953;28;45374;-72
2023/07/02 01:34:53;;;;;;;;;34.75;30.00;;;;;19.06;45.59;100784.06;5061407;28;45220;-72
2023/07/02 01:37:19;;;;;;;;;40.25;31.00;;;;;19.04;45.49;100789.44;5061473;28;45306;-72
2023/07/02 01:39:44;;;;;;;;;37.50;31.25;;;;;19.03;45.57;100790.41;5064029;28;45345;-73
2023/07/02 01:42:18;;;;;;;;;40.50;33.50;;;;;18.99;45.88;100792.34;5060168;28;45255;-73
2023/07/02 01:44:45;;;;;;;;;33.75;31.00;;;;;18.99;45.45;100789.69;5064539;28;47973;-72
2023/07/02 01:47:11;;;;;;;;;36.50;30.75;;;;;18.96;45.78;100783.66;5073671;28;45240;-73
2023/07/02 01:49:37;;;;;;;;;24.75;19.50;;;;;18.95;45.83;100781.91;5060152;28;45232;-72
2023/07/02 01:52:04;;;;;;;;;36.75;26.50;;;;;18.92;46.01;100790.06;5074957;28;45293;-72
2023/07/02 01:54:29;;;;;;;;;32.00;29.50;;;;;18.90;45.74;100795.44;5081500;28;46992;-73
2023/07/02 01:56:55;;;;;;;;;37.00;31.50;;;;;18.89;46.04;100788.34;5081321;28;45298;-72
2023/07/02 01:59:21;;;;;;;;;40.00;32.75;;;;;18.89;45.92;100787.50;5064821;28;45398;-73
2023/07/02 02:01:46;;;;;;;;;32.50;25.50;;;;;18.84;46.04;100782.41;5061123;28;45312;-72
2023/07/02 02:04:12;;;;;;;;;29.50;27.50;;;;;18.75;46.51;100772.19;5061277;28;45323;-72
2023/07/02 02:06:38;;;;;;;;;36.00;30.25;;;;;18.79;46.26;100787.97;5059503;28;45273;-72
2023/07/02 02:09:04;;;;;;;;;39.75;31.00;;;;;18.78;46.21;100790.69;5061455;28;45223;-72
2023/07/02 02:11:31;;;;;;;;;35.75;29.50;;;;;18.74;46.29;100790.00;5060897;28;45422;-72
2023/07/02 02:14:02;;;;;;;;;36.50;28.75;;;;;18.75;46.35;100797.00;5061202;28;46204;-72
2023/07/02 02:16:28;;;;;;;;;32.50;26.75;;;;;18.73;46.51;100790.91;5061039;28;45239;-72
2023/07/02 02:18:54;;;;;;;;;29.75;23.75;;;;;18.70;46.53;100788.38;5059695;28;45330;-72
2023/07/02 02:21:21;;;;;;;;;34.25;29.75;;;;;18.69;46.64;100781.31;5060455;28;45411;-72
2023/07/02 02:23:46;;;;;;;;;30.00;27.00;;;;;18.70;46.80;100791.03;5065569;28;45380;-72
2023/07/02 02:26:12;;;;;;;;;38.25;29.25;;;;;18.68;46.16;100791.13;5072217;28;45201;-72
2023/07/02 02:28:37;;;;;;;;;34.75;30.50;;;;;18.69;46.15;100794.63;5061173;28;45716;-72
2023/07/02 02:31:03;;;;;;;;;38.25;30.25;;;;;18.64;46.70;100788.66;5060754;28;45268;-72
2023/07/02 02:33:28;;;;;;;;;41.25;28.00;;;;;18.63;46.67;100797.63;5060827;28;45438;-72
2023/07/02 02:35:53;;;;;;;;;29.00;24.25;;;;;18.61;47.04;100796.81;5060459;28;45277;-72
2023/07/02 02:38:19;;;;;;;;;33.75;28.50;;;;;18.56;46.81;100790.84;5059516;28;45309;-72
2023/07/02 02:40:44;;;;;;;;;34.00;27.00;;;;;18.50;46.95;100787.53;5060407;28;45322;-72
2023/07/02 02:43:09;;;;;;;;;34.25;29.25;;;;;18.54;46.83;100795.38;5060809;28;45556;-72
2023/07/02 02:45:35;;;;;;;;;37.50;28.75;;;;;18.50;46.80;100798.19;5060516;28;45453;-73
2023/07/02 02:48:00;;;;;;;;;33.75;26.25;;;;;18.48;46.82;100794.72;5072514;28;45344;-72
2023/07/02 02:50:25;;;;;;;;;28.75;24.00;;;;;18.49;46.92;100807.09;5061603;28;45398;-72
2023/07/02 02:52:51;;;;;;;;;31.75;24.75;;;;;18.48;47.10;100802.69;5080814;28;45394;-72
2023/07/02 02:55:16;;;;;;;;;26.25;24.00;;;;;18.45;47.03;100799.31;5079461;28;49478;-71
2023/07/02 02:57:42;;;;;;;;;33.00;29.50;;;;;18.47;47.22;100803.63;5077995;28;45305;-72
2023/07/02 03:00:09;;;;;;;;;31.50;25.75;;;;;18.45;47.12;100805.53;5060242;28;45316;-73
2023/07/02 03:02:35;;;;;;;;;33.25;26.00;;;;;18.42;47.26;100800.31;5060368;28;47125;-72
2023/07/02 03:05:02;;;;;;;;;30.00;27.00;;;;;18.41;47.15;100795.94;5060118;28;45287;-72
2023/07/02 03:07:29;;;;;;;;;34.25;26.50;;;;;18.44;47.30;100803.78;5060344;28;45632;-72
2023/07/02 03:09:54;;;;;;;;;27.75;25.00;;;;;18.41;47.33;100803.06;5060000;28;45446;-72
2023/07/02 03:12:19;;;;;;;;;30.25;26.50;;;;;18.37;47.61;100801.47;5059057;28;46240;-73
2023/07/02 03:14:45;;;;;;;;;29.25;25.00;;;;;18.38;47.49;100803.19;5060056;28;45426;-72
2023/07/02 03:17:10;;;;;;;;;28.00;22.25;;;;;18.35;47.58;100813.06;5060448;28;45257;-71
2023/07/02 03:19:35;;;;;;;;;32.75;25.25;;;;;18.31;47.58;100802.63;5059951;28;45394;-72
2023/07/02 03:22:01;;;;;;;;;35.75;25.00;;;;;18.30;47.73;100803.53;5059980;28;46278;-73
2023/07/02 03:24:26;;;;;;;;;31.50;26.50;;;;;18.28;47.45;100814.25;5059954;28;45370;-71
2023/07/02 03:26:51;;;;;;;;;33.75;25.50;;;;;18.30;47.67;100806.19;5060082;28;45409;-72
2023/07/02 03:29:19;;;;;;;;;26.50;24.00;;;;;18.29;47.75;100809.81;5060086;28;45418;-72
2023/07/02 03:31:45;;;;;;;;;34.00;24.00;;;;;18.29;47.43;100815.13;5059989;28;47283;-72
2023/07/02 03:34:10;;;;;;;;;33.00;25.50;;;;;18.27;47.70;100811.69;5059835;28;45247;-72
2023/07/02 03:36:36;;;;;;;;;30.50;27.00;;;;;18.23;47.66;100812.75;5059858;28;45185;-71
2023/07/02 03:39:03;;;;;;;;;26.50;23.00;;;;;18.25;47.74;100822.38;5041678;28;45323;-72
2023/07/02 03:41:28;;;;;;;;;36.75;26.50;;;;;18.22;48.29;100832.28;5059529;28;45391;-72
2023/07/02 03:43:53;;;;;;;;;29.50;22.50;;;;;18.17;47.96;100825.38;5059752;28;45437;-72
2023/07/02 03:46:19;;;;;;;;;26.50;20.50;;;;;18.16;48.10;100830.75;5066038;28;45380;-72
2023/07/02 03:48:44;;;;;;;;;33.00;25.25;;;;;18.13;48.23;100830.91;5064537;28;45402;-72
2023/07/02 03:51:12;;;;;;;;;23.75;22.25;;;;;18.10;48.28;100834.56;5066987;28;45430;-74
2023/07/02 03:53:38;;;;;;;;;27.50;24.00;;;;;18.09;48.32;100834.66;5065095;28;45303;-73
2023/07/02 03:56:03;;;;;;;;;30.25;24.75;;;;;18.07;48.22;100829.38;5079894;28;45441;-73
2023/07/02 03:58:29;;;;;;;;;27.50;24.75;;;;;18.04;48.17;100834.84;5075185;28;45490;-73
2023/07/02 04:00:54;;;;;;;;;29.50;25.25;;;;;18.03;48.45;100839.28;5058209;28;46247;-72
2023/07/02 04:03:19;;;;;;;;;27.75;24.00;;;;;18.04;48.11;100845.47;5059237;28;56127;-72
2023/07/02 04:05:44;;;;;;;;;26.50;21.50;;;;;18.01;48.29;100837.63;5059897;28;45262;-73
2023/07/02 04:08:10;;;;;;;;;27.25;24.00;;;;;18.01;48.13;100843.81;5063239;28;45421;-73
2023/07/02 04:10:35;;;;;;;;;35.00;27.00;;;;;18.01;48.30;100845.59;5062968;28;45235;-73
2023/07/02 04:13:01;;;;;;;;;35.25;26.00;;;;;18.01;48.26;100848.25;5063073;28;45189;-73
2023/07/02 04:15:26;;;;;;;;;35.00;28.50;;;;;17.99;48.48;100853.66;5063116;28;45214;-73
2023/07/02 04:17:52;;;;;;;;;30.25;26.75;;;;;17.98;48.20;100851.91;5062913;28;45515;-73
2023/07/02 04:20:18;;;;;;;;;27.75;25.25;;;;;17.98;48.54;100853.72;5062551;28;46277;-73
2023/07/02 04:22:45;;;;;;;;;29.25;21.25;;;;;17.97;48.43;100851.97;5062801;28;45275;-73
2023/07/02 04:25:14;;;;;;;;;25.00;22.00;;;;;17.96;48.78;100856.44;5062910;28;45350;-72
2023/07/02 04:27:43;;;;;;;;;21.75;21.25;;;;;17.94;48.60;100858.28;5062645;28;45539;-73
2023/07/02 04:30:10;;;;;;;;;25.25;18.75;;;;;17.94;48.53;100860.09;5062603;28;46172;-72
2023/07/02 04:32:39;;;;;;;;;28.25;22.25;;;;;17.93;48.65;100856.53;5061334;28;45415;-73
2023/07/02 04:35:05;;;;;;;;;28.00;22.75;;;;;17.91;48.53;100855.75;5062731;28;45318;-73
2023/07/02 04:37:30;;;;;;;;;25.75;24.50;;;;;17.92;48.67;100860.13;5062259;28;45259;-73
2023/07/02 04:39:56;;;;;;;;;29.00;22.75;;;;;17.88;48.62;100861.19;5061142;28;45276;-73
2023/07/02 04:42:21;;;;;;;;;30.50;25.75;;;;;17.91;48.75;100873.47;5062568;28;45200;-74
2023/07/02 04:44:46;;;;;;;;;30.75;27.50;;;;;17.91;48.81;100868.16;5062828;28;45390;-73
2023/07/02 04:47:12;;;;;;;;;32.25;27.00;;;;;17.89;48.86;100870.03;5074317;28;45230;-74
2023/07/02 04:49:38;;;;;;;;;30.50;25.50;;;;;17.86;48.84;100860.38;5062430;28;46562;-74
2023/07/02 04:52:03;;;;;;;;;37.25;28.25;;;;;17.87;48.89;100867.44;5077355;28;45276;-73
2023/07/02 04:54:29;;;;;;;;;27.25;22.50;;;;;17.87;48.54;100870.09;5082832;28;45580;-72
2023/07/02 04:56:54;;;;;;;;;29.00;23.75;;;;;17.87;48.98;100870.09;5082504;28;45310;-72
2023/07/02 04:59:21;;;;;;;;;26.25;22.50;;;;;17.89;48.68;100873.56;5065586;28;46264;-73
2023/07/02 05:01:47;;;;;;;;;28.75;25.00;;;;;17.86;48.75;100871.88;5061027;28;45354;-73
2023/07/02 05:04:12;;;;;;;;;23.50;17.50;;;;;17.86;48.80;100877.22;5062385;28;45486;-72
2023/07/02 05:06:38;;;;;;;;;23.25;20.75;;;;;17.87;48.66;100873.63;5062016;28;45480;-73
2023/07/02 05:09:03;;;;;;;;;24.25;21.25;;;;;17.84;48.90;100873.75;5062219;28;46027;-73
2023/07/02 05:11:28;;;;;;;;;22.75;16.25;;;;;17.85;49.26;100872.81;5062232;28;45239;-72
2023/07/02 05:13:54;;;;;;;;;29.25;24.50;;;;;17.85;49.01;100864.84;5060996;28;45150;-73
2023/07/02 05:16:19;;;;;;;;;29.50;25.25;;;;;17.89;49.08;100870.03;5060385;28;45273;-72
2023/07/02 05:18:44;;;;;;;;;30.33;22.67;;;;;17.91;49.02;100870.81;5061307;28;53274;-73
2023/07/02 05:21:11;;;;;;;;;23.50;22.00;;;;;17.92;48.91;100877.88;5071374;28;53804;-73
2023/07/02 05:23:36;;;;;;;;;24.00;24.00;;;;;17.91;48.68;100874.38;5062162;28;45314;-73
2023/07/02 05:26:02;;;;;;;;;31.75;26.50;;;;;17.94;49.03;100881.38;5061613;28;45446;-73
2023/07/02 05:28:27;;;;;;;;;24.75;21.75;;;;;17.95;48.92;100875.09;5061847;28;45849;-72
2023/07/02 05:30:52;;;;;;;;;28.25;21.50;;;;;17.96;49.01;100879.50;5062128;28;45545;-73
2023/07/02 05:33:18;;;;;;;;;32.75;24.75;;;;;17.97;49.03;100883.88;5062152;28;45325;-73
2023/07/02 05:35:45;;;;;;;;;24.75;22.00;;;;;18.00;48.81;100886.44;5061492;28;45430;-73
2023/07/02 05:38:10;;;;;;;;;27.50;19.50;;;;;17.99;48.82;100882.88;5060591;28;48315;-74
2023/07/02 05:40:36;;;;;;;;;36.75;26.25;;;;;18.02;49.11;100887.22;5061424;28;45302;-73
2023/07/02 05:43:01;;;;;;;;;29.75;22.25;;;;;18.03;48.98;100894.25;5060522;28;45425;-73
2023/07/02 05:45:27;;;;;;;;;28.75;25.50;;;;;18.03;49.08;100895.13;5061178;28;54812;-73
2023/07/02 05:47:52;;;;;;;;;23.75;21.50;;;;;18.04;48.86;100893.34;5079503;28;48050;-73
2023/07/02 05:50:17;;;;;;;;;31.25;23.75;;;;;18.04;49.10;100893.34;5081309;28;48657;-73
2023/07/02 05:52:43;;;;;;;;;19.75;17.25;;;;;18.05;49.00;100891.53;5080642;28;45239;-73
2023/07/02 05:55:11;;;;;;;;;24.25;17.75;;;;;18.08;49.19;100896.72;5080282;28;45815;-74
2023/07/02 05:57:37;;;;;;;;;27.25;24.50;;;;;18.10;49.27;100890.41;5078116;28;48253;-73
2023/07/02 06:00:05;;;;;;;;;19.25;17.00;;;;;18.14;49.46;100897.31;5060012;28;45505;-73
2023/07/02 06:02:31;;;;;;;;;24.75;22.50;;;;;18.14;49.58;100896.47;5061492;28;45349;-73
2023/07/02 06:04:57;;;;;;;;;22.75;17.50;;;;;18.16;49.47;100898.13;5061017;28;45552;-73
2023/07/02 06:07:22;;;;;;;;;30.50;22.50;;;;;18.17;49.36;100894.50;5060867;28;46317;-72
2023/07/02 06:09:48;;;;;;;;;23.25;19.00;;;;;18.19;49.74;100895.31;5060892;28;45248;-73
2023/07/02 06:12:13;;;;;;;;;18.50;15.50;;;;;18.25;49.11;100901.31;5061583;28;45140;-73
2023/07/02 06:14:38;;;;;;;;;25.25;21.00;;;;;18.27;49.49;100902.09;5061118;28;45374;-72
2023/07/02 06:17:06;;;;;;;;;29.50;25.75;;;;;18.28;49.71;100898.53;5063586;28;46237;-72
2023/07/02 06:19:32;;;;;;;;;24.25;19.00;;;;;18.33;49.67;100909.81;5070251;28;45553;-71
2023/07/02 06:21:57;;;;;;;;;27.75;22.75;;;;;18.33;49.49;100900.03;5059577;28;45316;-72
2023/07/02 06:24:23;;;;;;;;;25.00;19.50;;;;;18.38;49.47;100912.25;5060976;28;45236;-72
2023/07/02 06:26:48;;;;;;;;;21.25;18.00;;;;;18.36;49.26;100904.34;5060679;28;45387;-72
2023/07/02 06:29:13;;;;;;;;;21.25;19.75;;;;;18.43;49.32;100912.94;5060999;28;45374;-72
2023/07/02 06:31:38;;;;;;;;;21.75;19.00;;;;;18.46;49.38;100918.97;5061016;28;45282;-72
2023/07/02 06:34:04;;;;;;;;;25.75;21.75;;;;;18.50;49.03;100917.03;5060802;28;45312;-72
2023/07/02 06:36:29;;;;;;;;;24.00;21.25;;;;;18.55;49.48;100931.00;5059034;28;51667;-72
2023/07/02 06:38:55;;;;;;;;;25.00;21.75;;;;;18.55;49.58;100925.69;5060679;28;45327;-72
2023/07/02 06:41:20;;;;;;;;;25.00;21.00;;;;;18.57;49.36;100929.16;5060697;28;45398;-73
2023/07/02 06:43:45;;;;;;;;;31.25;24.50;;;;;18.62;49.71;100939.59;5060756;28;45330;-72
2023/07/02 06:46:11;;;;;;;;;24.50;20.50;;;;;18.64;49.37;100935.03;5065484;28;46081;-72
2023/07/02 06:48:36;;;;;;;;;27.50;19.00;;;;;18.65;49.25;100935.00;5067910;28;45442;-72
2023/07/02 06:51:02;;;;;;;;;24.50;18.75;;;;;18.69;49.50;100933.03;5066650;28;45292;-72
2023/07/02 06:53:27;;;;;;;;;27.25;22.50;;;;;18.73;49.30;100939.97;5079642;28;45481;-72
2023/07/02 06:55:53;;;;;;;;;26.00;22.75;;;;;18.74;49.49;100935.50;5080598;28;45398;-72
2023/07/02 06:58:18;;;;;;;;;21.50;15.00;;;;;18.79;49.36;100938.81;5072614;28;45268;-72
2023/07/02 07:00:43;;;;;;;;;25.75;19.25;;;;;18.82;49.35;100933.38;5060463;28;45367;-73
2023/07/02 07:03:09;;;;;;;;;25.50;20.50;;;;;18.86;49.22;100937.59;5059133;28;45609;-73
2023/07/02 07:05:34;;;;;;;;;22.75;20.75;;;;;18.88;49.41;100941.06;5059953;28;45288;-73
2023/07/02 07:08:03;;;;;;;;;27.00;20.25;;;;;18.92;49.73;100934.69;5060334;28;45217;-72
2023/07/02 07:10:33;;;;;;;;;26.00;20.00;;;;;18.94;49.35;100932.84;5060226;28;45288;-72
2023/07/02 07:12:59;;;;;;;;;33.50;26.75;;;;;18.98;49.28;100936.19;5060040;28;45227;-72
2023/07/02 07:15:24;;;;;;;;;26.75;22.25;;;;;18.99;49.42;100932.59;5060112;28;45241;-72
2023/07/02 07:17:49;;;;;;;;;27.00;20.50;;;;;19.08;49.25;100936.66;5060153;28;45276;-73
2023/07/02 07:20:15;;;;;;;;;32.00;22.75;;;;;19.08;49.26;100937.53;5058647;28;45452;-72
2023/07/02 07:22:40;;;;;;;;;29.75;22.50;;;;;19.13;49.55;100946.16;5059784;28;52905;-72
2023/07/02 07:25:05;;;;;;;;;24.25;19.25;;;;;19.16;49.59;100951.31;5060119;28;46494;-72
2023/07/02 07:27:31;;;;;;;;;25.75;20.50;;;;;19.17;49.21;100946.88;5058703;28;45320;-71
2023/07/02 07:29:56;;;;;;;;;27.75;20.25;;;;;19.21;49.21;100950.28;5060100;28;45328;-71
2023/07/02 07:32:21;;;;;;;;;23.50;19.50;;;;;19.27;49.41;100947.28;5058734;28;45631;-71
2023/07/02 07:34:47;;;;;;;;;26.25;20.75;;;;;19.30;49.29;100949.81;5058523;28;47052;-72
2023/07/02 07:37:12;;;;;;;;;25.50;19.75;;;;;19.35;49.28;100946.94;5059440;28;52847;-72
2023/07/02 07:39:37;;;;;;;;;24.00;21.75;;;;;19.35;48.97;100950.47;5059341;28;45281;-72
2023/07/02 07:42:03;;;;;;;;;35.25;24.75;;;;;19.40;49.06;100950.25;5058401;28;45569;-71
2023/07/02 07:44:28;;;;;;;;;25.25;21.75;;;;;19.43;48.87;100950.97;5058670;28;45544;-71
2023/07/02 07:46:55;;;;;;;;;33.50;25.75;;;;;19.43;49.29;100956.31;5069383;28;45343;-71
2023/07/02 07:49:21;;;;;;;;;26.00;21.75;;;;;19.47;48.92;100957.00;5075390;28;45385;-71
2023/07/02 07:51:46;;;;;;;;;31.75;25.25;;;;;19.49;48.98;100953.31;5087763;27;45494;-71
2023/07/02 07:54:11;;;;;;;;;29.00;22.75;;;;;19.53;48.83;100955.84;5079927;28;45406;-71
2023/07/02 07:56:36;;;;;;;;;29.25;21.25;;;;;19.58;49.15;100957.34;5078479;28;45948;-71
2023/07/02 07:59:02;;;;;;;;;24.75;20.75;;;;;19.62;49.03;100961.59;5065658;28;45288;-72
2023/07/02 08:01:28;;;;;;;;;27.75;23.75;;;;;19.63;49.38;100957.13;5059633;28;45323;-71
2023/07/02 08:03:53;;;;;;;;;28.25;22.25;;;;;19.67;49.10;100956.03;5041462;28;46800;-72
2023/07/02 08:06:18;;;;;;;;;23.25;21.25;;;;;19.71;48.74;100957.63;5059405;28;45211;-72
2023/07/02 08:08:44;;;;;;;;;24.50;22.75;;;;;19.76;48.80;100966.25;5059482;28;45244;-71
2023/07/02 08:11:09;;;;;;;;;25.50;21.25;;;;;19.76;48.88;100963.59;5059508;28;45561;-72
2023/07/02 08:13:35;;;;;;;;;26.25;22.50;;;;;19.81;48.99;100964.22;5059234;28;46216;-71
2023/07/02 08:16:00;;;;;;;;;24.75;21.25;;;;;19.86;48.66;100961.38;5059610;28;45326;-74
2023/07/02 08:18:25;;;;;;;;;27.50;18.25;;;;;19.88;48.47;100959.47;5058182;28;45509;-72
2023/07/02 08:20:51;;;;;;;;;20.00;17.50;;;;;19.90;48.89;100962.94;5059058;28;45219;-72
2023/07/02 08:23:16;;;;;;;;;25.25;21.75;;;;;19.93;48.91;100965.44;5057982;28;47049;-72
2023/07/02 08:25:41;;;;;;;;;21.00;18.50;;;;;19.99;49.09;100964.28;5058017;28;45229;-72
2023/07/02 08:28:07;;;;;;;;;28.25;20.50;;;;;20.03;48.73;100962.31;5059282;28;45733;-71
2023/07/02 08:30:32;;;;;;;;;27.75;20.25;;;;;20.04;48.73;100972.91;5058126;28;45376;-71
2023/07/02 08:32:57;;;;;;;;;25.00;25.00;;;;;20.07;48.29;100956.75;5059034;28;45390;-71
2023/07/02 08:35:23;;;;;;;;;25.25;20.50;;;;;20.12;48.66;100973.41;5059062;28;45227;-72
2023/07/02 08:37:48;;;;;;;;;29.00;24.00;;;;;20.16;48.25;100975.91;5059276;28;45237;-73
2023/07/02 08:40:21;;;;;;;;;30.50;23.25;;;;;20.18;48.00;100974.88;5057839;28;45557;-71
2023/07/02 08:42:47;;;;;;;;;23.25;21.50;;;;;20.20;48.23;100970.34;5058940;28;45303;-72
2023/07/02 08:45:15;;;;;;;;;23.75;19.25;;;;;20.24;47.86;100971.06;5065631;28;45250;-72
2023/07/02 08:47:40;;;;;;;;;23.00;19.25;;;;;20.28;47.78;100973.47;5071678;28;45418;-72
2023/07/02 08:50:06;;;;;;;;;27.50;16.75;;;;;20.30;48.04;100971.59;5058827;28;45415;-72
2023/07/02 08:52:32;;;;;;;;;27.75;23.00;;;;;20.35;48.10;100974.03;5079131;28;46189;-71
2023/07/02 08:54:57;;;;;;;;;23.00;21.50;;;;;20.35;48.03;100971.38;5082548;28;45334;-71
2023/07/02 08:57:22;;;;;;;;;23.25;18.75;;;;;20.42;47.96;100974.56;5082397;28;45299;-71
2023/07/02 08:59:48;;;;;;;;;19.75;19.75;;;;;20.40;47.32;100965.75;5062379;28;45245;-72
2023/07/02 09:02:14;;;;;;;;;23.75;19.00;;;;;20.48;47.70;100978.72;5062189;28;45587;-71
2023/07/02 09:04:40;;;;;;;;;23.50;17.75;;;;;20.51;47.99;100973.22;5062171;28;45197;-73
2023/07/02 09:07:06;;;;;;;;;24.00;20.75;;;;;20.54;47.73;100975.72;5061978;28;45386;-72
2023/07/02 09:09:31;;;;;;;;;18.25;15.50;;;;;20.57;47.90;100971.09;5062414;28;45490;-72
2023/07/02 09:11:57;;;;;;;;;24.50;21.00;;;;;20.60;47.23;100962.94;5061860;28;45236;-71
2023/07/02 09:14:27;;;;;;;;;18.00;18.00;;;;;20.62;46.82;100968.19;5062194;28;45231;-71
2023/07/02 09:17:04;;;;;;;;;20.00;17.50;;;;;20.69;46.93;100964.25;5080526;28;45328;-71
2023/07/02 09:19:29;;;;;;;;;21.75;17.75;;;;;20.64;47.42;100952.97;5067521;28;45511;-70
2023/07/02 09:21:59;;;;;;;;;19.00;17.75;;;;;20.72;46.95;100969.44;5061795;28;45201;-71
2023/07/02 09:24:25;;;;;;;;;21.75;15.25;;;;;20.75;46.85;100965.75;5061855;28;45737;-72
2023/07/02 09:26:55;;;;;;;;;22.50;17.75;;;;;20.78;46.36;100970.94;5061946;28;45387;-72
2023/07/02 09:29:32;;;;;;;;;18.00;15.75;;;;;20.77;46.31;100966.53;5072915;28;45745;-72
2023/07/02 09:32:00;;;;;;;;;19.75;17.25;;;;;20.82;46.44;100964.47;5061851;28;45273;-72
2023/07/02 09:34:33;;;;;;;;;12.00;11.75;;;;;20.87;45.84;100969.59;5061607;28;45288;-72
2023/07/02 09:37:00;;;;;;;;;20.25;15.75;;;;;20.90;45.66;100966.75;5061624;28;45330;-72
2023/07/02 09:39:30;;;;;;;;;15.75;14.25;;;;;20.96;45.85;100968.22;5061428;28;45549;-72
2023/07/02 09:41:57;;;;;;;;;22.50;19.25;;;;;20.99;46.04;100974.25;5061531;28;46833;-73
2023/07/02 09:44:28;;;;;;;;;18.50;15.75;;;;;21.04;45.65;100976.66;5061441;28;45270;-72
2023/07/02 09:47:01;;;;;;;;;22.25;18.50;;;;;21.07;45.53;100969.34;5072730;28;45447;-72
2023/07/02 09:49:29;;;;;;;;;20.00;15.25;;;;;21.11;45.79;100976.25;5064202;28;45493;-72
2023/07/02 09:51:54;;;;;;;;;18.50;15.25;;;;;21.11;45.56;100976.25;5079857;28;48443;-72
2023/07/02 09:54:20;;;;;;;;;11.75;11.50;;;;;21.14;45.37;100971.69;5081809;28;45222;-73
2023/07/02 09:56:47;;;;;;;;;20.00;16.50;;;;;21.17;45.05;100974.19;5066629;28;45290;-72
2023/07/02 09:59:13;;;;;;;;;20.75;17.00;;;;;21.19;44.83;100969.63;5059819;28;45705;-71
2023/07/02 10:01:39;;;;;;;;;20.50;19.00;;;;;21.18;45.02;100974.13;5070500;28;47259;-73
2023/07/02 10:04:15;;;;;;;;;20.50;14.00;;;;;21.19;45.26;100980.31;5060981;28;45441;-73
2023/07/02 10:06:51;;;;;;;;;28.75;21.25;;;;;21.22;45.10;100980.13;5061301;28;45262;-73
2023/07/02 10:09:17;;;;;;;;;21.75;17.75;;;;;21.21;44.67;100984.63;5059949;28;45407;-74
2023/07/02 10:11:43;;;;;;;;;20.50;17.75;;;;;21.23;44.54;100958.69;5060954;28;45428;-72
2023/07/02 10:14:08;;;;;;;;;26.25;19.50;;;;;21.28;44.72;100963.75;5061187;28;45650;-73
2023/07/02 10:16:34;;;;;;;;;22.75;18.75;;;;;21.31;44.78;100966.28;5061342;28;45169;-74
2023/07/02 10:19:11;;;;;;;;;20.00;17.75;;;;;21.37;44.48;100973.94;5061193;28;45209;-74
2023/07/02 10:21:37;;;;;;;;;18.50;15.50;;;;;21.40;44.59;100965.75;5059122;28;47590;-73
2023/07/02 10:24:28;;;;;;;;;19.50;16.25;;;;;21.49;44.91;100955.50;5060948;28;45213;-73
2023/07/02 10:26:56;;;;;;;;;22.75;18.50;;;;;21.53;44.83;100944.53;5055714;28;45246;-74
2023/07/02 10:29:23;;;;;;;;;21.25;18.25;;;;;21.60;44.60;100953.09;5061017;28;45414;-74
2023/07/02 10:31:54;;;;;;;;;30.25;24.50;;;;;21.68;44.30;100961.53;5060729;28;46184;-75
2023/07/02 10:34:35;;;;;;;;;21.25;18.75;;;;;21.75;44.64;100946.88;5060772;28;45332;-74
2023/07/02 10:37:02;;;;;;;;;20.25;19.00;;;;;21.85;44.72;100938.31;5060595;28;45478;-74
2023/07/02 10:39:30;;;;;;;;;18.25;14.75;;;;;21.96;44.19;100935.88;5060762;28;45338;-74
2023/07/02 10:42:06;;;;;;;;;23.50;18.25;;;;;22.10;44.55;100932.38;5060488;28;47076;-74
2023/07/02 10:44:31;;;;;;;;;20.75;16.75;;;;;22.29;44.33;100934.81;5059223;28;45224;-75
2023/07/02 10:46:57;;;;;;;;;14.50;14.00;;;;;22.48;44.14;100945.28;5072308;28;45343;-74
2023/07/02 10:49:30;;;;;;;;;15.75;15.00;;;;;22.66;43.76;100937.06;5061290;28;45240;-74
2023/07/02 10:52:00;;;;;;;;;13.75;13.75;;;;;22.79;43.40;100940.72;5074395;28;45572;-74
2023/07/02 10:54:25;;;;;;;;;16.00;14.75;;;;;22.91;43.44;100941.75;5080905;28;45399;-74
2023/07/02 10:56:57;;;;;;;;;19.25;15.00;;;;;23.02;43.33;100935.72;5080586;28;45330;-74
2023/07/02 10:59:25;;;;;;;;;19.50;14.00;;;;;23.07;43.31;100935.41;5070651;28;45927;-75
2023/07/02 11:01:51;;;;;;;;;18.75;16.75;;;;;23.20;43.26;100941.75;5060166;28;45470;-77
2023/07/02 11:04:16;;;;;;;;;16.25;13.25;;;;;23.27;43.35;100932.34;5060365;28;45357;-75
2023/07/02 11:06:42;;;;;;;;;17.25;16.25;;;;;23.36;42.96;100936.25;5060029;28;45420;-74